Time;durP1;ratioP1;P1;durP2;ratioP2;P2;SDS_P1;SDS_P2;PMS_P1;PMS_P2;Temp;Humidity;BMP_temperature;BMP_pressure;BME280_temperature;BME280_humidity;BME280_pressure;Samples;Min_cycle;Max_cycle;Signal;HPM_P1;HPM_P2
2023/04/13 00:00:42;;;;;;;;;;;;;;;10.75;51.51;98627.22;4961021;28;6800;-79
2023/04/13 00:03:11;;;;;;;;;;;;;;;10.76;51.75;98615.28;4937018;28;8736;-84
2023/04/13 00:05:38;;;;;;;;;;;;;;;10.77;52.21;98629.81;4971298;28;7228;-80
2023/04/13 00:08:05;;;;;;;;;;;;;;;10.83;51.72;98630.78;4975093;28;7850;-81
2023/04/13 00:10:35;;;;;;;;;;;;;;;10.91;51.57;98625.81;4972662;28;6860;-81
2023/04/13 00:13:05;;;;;;;;;;;;;;;10.92;51.84;98619.88;4967057;28;7021;-79
2023/04/13 00:15:35;;;;;;;;;;;;;;;10.88;51.84;98612.09;4943458;28;6985;-83
2023/04/13 00:18:02;;;;;;;;;;;;;;;10.82;52.65;98628.22;4953810;28;8791;-83
2023/04/13 00:20:29;;;;;;;;;;;;;;;10.76;52.42;98620.41;4961073;28;7027;-81
2023/04/13 00:22:55;;;;;;;;;;;;;;;10.70;52.76;98642.50;4955736;28;6808;-79
2023/04/13 00:25:21;;;;;;;;;;;;;;;10.69;52.89;98625.41;4957289;28;6823;-83
2023/04/13 00:27:51;;;;;;;;;;;;;;;10.66;52.93;98616.78;4974029;28;6792;-80
2023/04/13 00:30:18;;;;;;;;;;;;;;;10.68;53.02;98610.03;4962470;28;7190;-79
2023/04/13 00:32:45;;;;;;;;;;;;;;;10.77;52.83;98634.94;4974110;28;6800;-82
2023/04/13 00:35:17;;;;;;;;;;;;;;;10.84;52.50;98611.16;4962934;28;7230;-78
2023/04/13 00:37:45;;;;;;;;;;;;;;;10.92;52.20;98614.72;4972429;28;6888;-79
2023/04/13 00:40:12;;;;;;;;;;;;;;;10.99;51.45;98587.50;4970859;28;6848;-82
2023/04/13 00:42:38;;;;;;;;;;;;;;;11.08;51.80;98605.59;4953956;28;6998;-82
2023/04/13 00:45:04;;;;;;;;;;;;;;;11.11;51.64;98615.06;4965642;28;6788;-79
2023/04/13 00:47:35;;;;;;;;;;;;;;;11.08;51.75;98605.59;4956675;28;7257;-82
2023/04/13 00:50:04;;;;;;;;;;;;;;;10.97;52.63;98613.09;4955977;28;6862;-82
2023/04/13 00:52:33;;;;;;;;;;;;;;;10.87;52.88;98611.22;4961194;28;7146;-82
2023/04/13 00:55:01;;;;;;;;;;;;;;;10.80;53.12;98589.75;4957741;28;8528;-81
2023/04/13 00:57:27;;;;;;;;;;;;;;;10.71;53.69;98604.94;4955649;28;6824;-83
2023/04/13 00:59:54;;;;;;;;;;;;;;;10.65;53.92;98610.81;4941142;28;7067;-77
2023/04/13 01:02:23;;;;;;;;;;;;;;;10.61;54.00;98603.06;4960765;28;6936;-81
2023/04/13 01:04:50;;;;;;;;;;;;;;;10.63;54.00;98597.13;4948155;28;7018;-79
2023/04/13 01:07:46;;;;;;;;;;;;;;;10.72;53.88;98596.41;4966442;28;7183;-83
2023/04/13 01:10:22;;;;;;;;;;;;;;;10.78;53.35;98600.78;4961868;28;7182;-83
2023/04/13 01:13:29;;;;;;;;;;;;;;;10.83;53.67;98604.31;4972067;28;7002;-80
2023/04/13 01:16:15;;;;;;;;;;;;;;;10.80;53.58;98604.25;4951243;28;6984;-79
2023/04/13 01:18:47;;;;;;;;;;;;;;;10.80;53.38;98574.38;4981076;28;7368;-82
2023/04/13 01:21:19;;;;;;;;;;;;;;;10.86;52.92;98601.78;4966128;28;7094;-82
2023/04/13 01:23:53;;;;;;;;;;;;;;;10.91;53.19;98583.94;4972136;28;8521;-83
2023/04/13 01:26:21;;;;;;;;;;;;;;;10.91;53.21;98574.56;4962990;28;7130;-83
2023/04/13 01:28:50;;;;;;;;;;;;;;;10.97;52.87;98577.22;4950378;28;6816;-81
2023/04/13 01:31:18;;;;;;;;;;;;;;;11.06;52.61;98578.22;4944779;28;7965;-81
2023/04/13 01:33:45;;;;;;;;;;;;;;;11.06;52.55;98570.53;4964414;28;6983;-82
2023/04/13 01:36:11;;;;;;;;;;;;;;;11.09;52.59;98580.81;4955460;28;6983;-80
2023/04/13 01:38:37;;;;;;;;;;;;;;;11.09;51.82;98580.81;4963792;28;7877;-80
2023/04/13 01:41:03;;;;;;;;;;;;;;;11.13;52.28;98585.19;4964827;28;7043;-84
2023/04/13 01:43:29;;;;;;;;;;;;;;;11.14;52.37;98578.31;4962600;28;6772;-82
2023/04/13 01:46:15;;;;;;;;;;;;;;;11.15;52.46;98586.06;4968787;28;6911;-83
2023/04/13 01:48:45;;;;;;;;;;;;;;;11.18;52.49;98585.25;4968028;28;6832;-83
2023/04/13 01:51:33;;;;;;;;;;;;;;;11.27;52.28;98589.66;4966020;28;7395;-81
2023/04/13 01:54:12;;;;;;;;;;;;;;;11.30;52.42;98572.63;4980881;28;7047;-78
2023/04/13 01:56:42;;;;;;;;;;;;;;;11.31;52.52;98594.00;4980971;28;7383;-80
2023/04/13 01:59:09;;;;;;;;;;;;;;;11.27;52.34;98599.91;4958830;28;6988;-81
2023/04/13 02:01:37;;;;;;;;;;;;;;;11.27;52.31;98600.78;4981488;28;6851;-81
2023/04/13 02:04:04;;;;;;;;;;;;;;;11.29;52.08;98598.22;4967771;28;6785;-83
2023/04/13 02:06:29;;;;;;;;;;;;;;;11.26;52.29;98578.53;4984644;28;6781;-83
2023/04/13 02:08:55;;;;;;;;;;;;;;;11.19;52.44;98617.75;4963704;28;7300;-82
2023/04/13 02:11:21;;;;;;;;;;;;;;;11.12;52.22;98606.53;4966475;28;6768;-81
2023/04/13 02:13:46;;;;;;;;;;;;;;;11.07;52.89;98597.88;4962512;28;7222;-78
2023/04/13 02:16:12;;;;;;;;;;;;;;;11.05;52.63;98605.53;4957195;28;6973;-82
2023/04/13 02:18:39;;;;;;;;;;;;;;;11.09;52.74;98612.47;4965311;28;6807;-83
2023/04/13 02:21:08;;;;;;;;;;;;;;;11.14;52.98;98630.47;4960670;28;8390;-83
2023/04/13 02:23:40;;;;;;;;;;;;;;;11.19;53.05;98616.03;4967613;28;7189;-82
2023/04/13 02:26:15;;;;;;;;;;;;;;;11.24;52.90;98634.94;4965735;28;7014;-83
2023/04/13 02:28:40;;;;;;;;;;;;;;;11.30;52.97;98628.16;4946228;28;7064;-82
2023/04/13 02:31:06;;;;;;;;;;;;;;;11.35;52.38;98636.81;4968738;28;7821;-81
2023/04/13 02:33:34;;;;;;;;;;;;;;;11.41;52.25;98638.59;4984518;28;6936;-83
2023/04/13 02:36:02;;;;;;;;;;;;;;;11.42;52.09;98630.94;4967001;28;7224;-83
2023/04/13 02:38:29;;;;;;;;;;;;;;;11.40;51.67;98637.75;4942809;28;6983;-83
2023/04/13 02:40:58;;;;;;;;;;;;;;;11.40;51.85;98648.03;4965652;28;6863;-82
2023/04/13 02:43:27;;;;;;;;;;;;;;;11.40;52.11;98653.16;4959473;28;6853;-79
2023/04/13 02:45:54;;;;;;;;;;;;;;;11.36;52.12;98651.34;4964314;28;6804;-81
2023/04/13 02:48:20;;;;;;;;;;;;;;;11.32;52.18;98665.81;4951506;28;6975;-80
2023/04/13 02:50:46;;;;;;;;;;;;;;;11.21;52.07;98663.09;4950257;28;7045;-80
2023/04/13 02:53:15;;;;;;;;;;;;;;;11.08;52.76;98668.81;4947014;28;7255;-77
2023/04/13 02:55:41;;;;;;;;;;;;;;;11.01;53.01;98669.53;4967489;28;7925;-76
2023/04/13 02:58:10;;;;;;;;;;;;;;;10.92;53.10;98685.63;4954218;28;8267;-76
2023/04/13 03:00:37;;;;;;;;;;;;;;;10.86;54.01;98671.00;4966928;28;7664;-76
2023/04/13 03:03:03;;;;;;;;;;;;;;;10.80;54.00;98670.88;4963836;28;6935;-76
2023/04/13 03:05:32;;;;;;;;;;;;;;;10.77;54.14;98666.56;4960096;28;6852;-76
2023/04/13 03:07:58;;;;;;;;;;;;;;;10.76;55.02;98669.09;4964815;28;7011;-76
2023/04/13 03:10:24;;;;;;;;;;;;;;;10.76;54.67;98676.78;4954972;28;6975;-76
2023/04/13 03:12:50;;;;;;;;;;;;;;;10.82;55.03;98679.47;4950501;28;6989;-76
2023/04/13 03:15:17;;;;;;;;;;;;;;;10.78;54.93;98682.78;4961742;28;6768;-76
2023/04/13 03:17:44;;;;;;;;;;;;;;;10.77;54.79;98681.94;4947100;28;7005;-76
2023/04/13 03:20:12;;;;;;;;;;;;;;;10.74;55.15;98696.41;4949912;28;6861;-76
2023/04/13 03:22:38;;;;;;;;;;;;;;;10.69;55.27;98689.47;4971396;28;7765;-76
2023/04/13 03:25:06;;;;;;;;;;;;;;;10.68;55.22;98689.44;4948673;28;7227;-76
2023/04/13 03:27:31;;;;;;;;;;;;;;;10.64;55.49;98696.22;4951356;28;7695;-76
2023/04/13 03:29:57;;;;;;;;;;;;;;;10.62;55.84;98697.88;4969951;28;7030;-76
2023/04/13 03:32:22;;;;;;;;;;;;;;;10.56;56.69;98702.88;4953528;28;7648;-76
2023/04/13 03:34:48;;;;;;;;;;;;;;;10.56;56.39;98701.16;4966902;28;7179;-76
2023/04/13 03:37:14;;;;;;;;;;;;;;;10.55;56.14;98703.69;4962882;28;7097;-76
2023/04/13 03:39:40;;;;;;;;;;;;;;;10.51;57.18;98714.69;4965120;28;7226;-76
2023/04/13 03:42:06;;;;;;;;;;;;;;;10.45;57.25;98714.59;4959629;28;6916;-76
2023/04/13 03:44:32;;;;;;;;;;;;;;;10.44;57.17;98718.00;4954583;28;7371;-77
2023/04/13 03:46:58;;;;;;;;;;;;;;;10.43;57.26;98719.66;4958309;28;6784;-77
2023/04/13 03:49:24;;;;;;;;;;;;;;;10.41;56.99;98717.06;4940547;28;6946;-77
2023/04/13 03:51:50;;;;;;;;;;;;;;;10.41;57.44;98723.88;4977048;28;6772;-77
2023/04/13 03:54:15;;;;;;;;;;;;;;;10.39;57.90;98728.94;4969013;28;6940;-77
2023/04/13 03:56:41;;;;;;;;;;;;;;;10.38;57.85;98729.78;4969026;28;6982;-77
2023/04/13 03:59:07;;;;;;;;;;;;;;;10.37;58.28;98733.19;4966053;28;7865;-77
2023/04/13 04:01:32;;;;;;;;;;;;;;;10.36;57.52;98736.56;4954803;28;7083;-77
2023/04/13 04:03:58;;;;;;;;;;;;;;;10.34;57.59;98748.50;4958431;28;6984;-77
2023/04/13 04:06:24;;;;;;;;;;;;;;;10.37;57.55;98757.91;4976649;28;6922;-77
2023/04/13 04:08:50;;;;;;;;;;;;;;;10.39;58.26;98757.13;4961889;28;6772;-77
2023/04/13 04:11:16;;;;;;;;;;;;;;;10.40;57.89;98756.28;4950261;28;8770;-77
2023/04/13 04:13:42;;;;;;;;;;;;;;;10.39;58.42;98752.00;4972757;28;7191;-76
2023/04/13 04:16:10;;;;;;;;;;;;;;;10.43;57.84;98763.22;4939018;28;6919;-77
2023/04/13 04:18:36;;;;;;;;;;;;;;;10.49;57.77;98767.59;4938882;28;8819;-77
2023/04/13 04:21:03;;;;;;;;;;;;;;;10.55;58.12;98770.31;4942116;28;8942;-77
2023/04/13 04:23:29;;;;;;;;;;;;;;;10.59;57.95;98769.53;4959355;28;7227;-77
2023/04/13 04:25:58;;;;;;;;;;;;;;;10.61;57.88;98770.41;4940523;28;8532;-77
2023/04/13 04:28:24;;;;;;;;;;;;;;;10.67;57.83;98785.06;4977518;28;8033;-77
2023/04/13 04:30:54;;;;;;;;;;;;;;;10.73;57.47;98789.47;4972889;28;7382;-77
2023/04/13 04:33:24;;;;;;;;;;;;;;;10.76;57.50;98784.41;4962357;28;8574;-76
2023/04/13 04:35:50;;;;;;;;;;;;;;;10.79;57.10;98787.91;4949322;28;7819;-76
2023/04/13 04:38:17;;;;;;;;;;;;;;;10.82;57.17;98793.09;4977951;28;6784;-76
2023/04/13 04:40:44;;;;;;;;;;;;;;;10.87;57.29;98797.47;4975444;28;7038;-76
2023/04/13 04:43:12;;;;;;;;;;;;;;;10.91;56.53;98812.06;4949626;28;7242;-77
2023/04/13 04:45:42;;;;;;;;;;;;;;;10.91;56.57;98820.63;4961350;28;7064;-77
2023/04/13 04:48:10;;;;;;;;;;;;;;;10.89;56.79;98822.28;4963986;28;7372;-77
2023/04/13 04:50:36;;;;;;;;;;;;;;;10.84;56.50;98817.03;4957453;28;7026;-76
2023/04/13 04:53:05;;;;;;;;;;;;;;;10.78;56.48;98831.44;4963154;28;6994;-76
2023/04/13 04:55:32;;;;;;;;;;;;;;;10.73;56.47;98833.03;4957800;28;6780;-77
2023/04/13 04:57:57;;;;;;;;;;;;;;;10.66;56.39;98838.03;4954782;28;7002;-77
2023/04/13 05:00:29;;;;;;;;;;;;;;;10.63;56.13;98848.22;4957104;28;6792;-76
2023/04/13 05:02:56;;;;;;;;;;;;;;;10.59;56.33;98855.78;4975970;28;7291;-76
2023/04/13 05:05:23;;;;;;;;;;;;;;;10.56;56.76;98857.44;4976419;28;6793;-77
2023/04/13 05:07:49;;;;;;;;;;;;;;;10.55;56.85;98871.06;4954374;28;9203;-77
2023/04/13 05:10:15;;;;;;;;;;;;;;;10.53;56.45;98877.00;4971011;28;7146;-77
2023/04/13 05:12:40;;;;;;;;;;;;;;;10.53;56.60;98877.00;4974917;28;7725;-77
2023/04/13 05:15:07;;;;;;;;;;;;;;;10.52;56.34;98885.50;4961005;28;8064;-76
2023/04/13 05:17:35;;;;;;;;;;;;;;;10.49;56.96;98885.44;4960215;28;6864;-76
2023/04/13 05:20:03;;;;;;;;;;;;;;;10.50;56.10;98893.16;4950317;28;6959;-76
2023/04/13 05:22:28;;;;;;;;;;;;;;;10.49;56.29;98894.00;4961005;28;6812;-76
2023/04/13 05:24:54;;;;;;;;;;;;;;;10.50;56.64;98898.28;4959696;28;6911;-76
2023/04/13 05:27:20;;;;;;;;;;;;;;;10.51;56.63;98909.38;4958735;28;6792;-76
2023/04/13 05:29:46;;;;;;;;;;;;;;;10.52;56.75;98917.13;4953481;28;7283;-76
2023/04/13 05:32:13;;;;;;;;;;;;;;;10.53;56.33;98920.56;4962345;28;7111;-76
2023/04/13 05:34:39;;;;;;;;;;;;;;;10.54;56.56;98927.41;4951721;28;6804;-76
2023/04/13 05:37:05;;;;;;;;;;;;;;;10.56;56.45;98930.88;4960919;28;6971;-76
2023/04/13 05:39:30;;;;;;;;;;;;;;;10.57;56.42;98932.59;4963518;28;7196;-76
2023/04/13 05:41:56;;;;;;;;;;;;;;;10.61;56.63;98936.09;4957824;28;6772;-76
2023/04/13 05:44:22;;;;;;;;;;;;;;;10.62;56.61;98938.72;4978289;28;6776;-75
2023/04/13 05:46:51;;;;;;;;;;;;;;;10.66;56.21;98935.38;4961876;28;7335;-82
2023/04/13 05:49:17;;;;;;;;;;;;;;;10.70;56.43;98950.00;4951299;28;7005;-76
2023/04/13 05:51:42;;;;;;;;;;;;;;;10.76;56.37;98946.72;4960293;28;6776;-82
2023/04/13 05:54:09;;;;;;;;;;;;;;;10.81;56.19;98944.25;4945983;28;7042;-83
2023/04/13 05:56:35;;;;;;;;;;;;;;;10.87;56.47;98943.56;4954963;28;7275;-82
2023/04/13 05:59:03;;;;;;;;;;;;;;;10.92;56.82;98952.22;4948857;28;6976;-84
2023/04/13 06:01:31;;;;;;;;;;;;;;;11.00;56.41;98952.38;4944400;28;7972;-79
2023/04/13 06:03:59;;;;;;;;;;;;;;;11.05;56.51;98961.06;4962316;28;6788;-82
2023/04/13 06:06:25;;;;;;;;;;;;;;;11.11;56.67;98958.63;4964755;28;7027;-83
2023/04/13 06:08:52;;;;;;;;;;;;;;;11.17;56.13;98966.44;4957403;28;7135;-82
2023/04/13 06:11:19;;;;;;;;;;;;;;;11.25;56.45;98969.19;4979854;28;7046;-84
2023/04/13 06:13:45;;;;;;;;;;;;;;;11.29;56.17;98976.13;4978844;28;6803;-84
2023/04/13 06:16:11;;;;;;;;;;;;;;;11.34;56.59;98973.66;4962378;28;6827;-79
2023/04/13 06:18:36;;;;;;;;;;;;;;;11.43;56.54;98972.97;4963426;28;6843;-83
2023/04/13 06:21:02;;;;;;;;;;;;;;;11.50;56.42;98980.88;4965182;28;6907;-83
2023/04/13 06:23:28;;;;;;;;;;;;;;;11.59;56.41;98992.13;4958644;28;7855;-83
2023/04/13 06:25:53;;;;;;;;;;;;;;;11.70;56.40;98988.13;4957900;28;6768;-84
2023/04/13 06:28:20;;;;;;;;;;;;;;;11.83;56.20;98988.38;4956925;28;6967;-82
2023/04/13 06:30:45;;;;;;;;;;;;;;;11.96;55.66;98995.47;4967353;28;6983;-84
2023/04/13 06:33:11;;;;;;;;;;;;;;;12.05;56.01;99000.81;4956557;28;6836;-79
2023/04/13 06:35:37;;;;;;;;;;;;;;;12.20;55.52;99002.81;4968319;28;7217;-84
2023/04/13 06:38:03;;;;;;;;;;;;;;;12.32;55.69;99007.31;4964074;28;6923;-78
2023/04/13 06:40:30;;;;;;;;;;;;;;;12.43;55.42;99004.06;4962257;28;7637;-78
2023/04/13 06:42:56;;;;;;;;;;;;;;;12.48;54.71;99002.47;4967363;28;7233;-80
2023/04/13 06:45:22;;;;;;;;;;;;;;;12.54;54.86;98984.56;4967933;28;6836;-83
2023/04/13 06:47:51;;;;;;;;;;;;;;;12.55;54.47;99003.44;4959919;28;7400;-81
2023/04/13 06:50:17;;;;;;;;;;;;;;;12.56;54.16;99008.63;4975614;28;6812;-83
2023/04/13 06:52:45;;;;;;;;;;;;;;;12.66;54.46;99006.19;4957446;28;6955;-82
2023/04/13 06:55:14;;;;;;;;;;;;;;;12.75;53.74;99016.66;4947209;28;7248;-81
2023/04/13 06:57:40;;;;;;;;;;;;;;;12.83;53.93;99009.91;4965219;28;6902;-81
2023/04/13 07:00:09;;;;;;;;;;;;;;;12.90;53.36;99016.88;4946547;28;7059;-82
2023/04/13 07:02:35;;;;;;;;;;;;;;;13.02;53.98;99015.34;4966696;28;11313;-81
2023/04/13 07:05:01;;;;;;;;;;;;;;;13.12;54.02;99021.50;4967492;28;6856;-82
2023/04/13 07:07:27;;;;;;;;;;;;;;;13.24;54.45;99013.13;4978890;28;6933;-78
2023/04/13 07:09:53;;;;;;;;;;;;;;;13.33;53.50;99024.41;4976632;28;6788;-79
2023/04/13 07:12:18;;;;;;;;;;;;;;;13.39;53.08;99017.63;4965786;28;6935;-77
2023/04/13 07:14:48;;;;;;;;;;;;;;;13.47;53.52;99022.06;4964457;28;6812;-82
2023/04/13 07:17:13;;;;;;;;;;;;;;;13.67;53.98;99029.19;4965494;28;7033;-79
2023/04/13 07:19:46;;;;;;;;;;;;;;;13.81;52.64;99024.22;4978337;28;6775;-77
2023/04/13 07:22:12;;;;;;;;;;;;;;;13.91;52.92;99040.66;4961564;28;6800;-78
2023/04/13 07:24:38;;;;;;;;;;;;;;;13.95;52.25;99046.69;4972147;28;7700;-84
2023/04/13 07:27:04;;;;;;;;;;;;;;;13.95;52.63;99055.28;4980896;28;6851;-83
2023/04/13 07:29:30;;;;;;;;;;;;;;;13.96;52.47;99045.88;4962098;28;7223;-82
2023/04/13 07:32:05;;;;;;;;;;;;;;;13.95;51.47;99052.72;4963645;28;6784;-81
2023/04/13 07:34:31;;;;;;;;;;;;;;;13.91;51.71;99056.13;4965783;28;7350;-75
2023/04/13 07:36:56;;;;;;;;;;;;;;;13.87;51.80;99064.63;4960310;28;6848;-81
2023/04/13 07:39:22;;;;;;;;;;;;;;;13.86;51.34;99060.31;4962240;28;6856;-82
2023/04/13 07:41:48;;;;;;;;;;;;;;;13.86;51.64;99065.47;4964888;28;6767;-83
2023/04/13 07:44:14;;;;;;;;;;;;;;;13.82;51.45;99071.44;4981946;28;6935;-81
2023/04/13 07:46:40;;;;;;;;;;;;;;;13.81;51.58;99073.16;4961103;28;6939;-76
2023/04/13 07:49:06;;;;;;;;;;;;;;;13.82;51.37;99079.19;4962004;28;7780;-77
2023/04/13 07:51:33;;;;;;;;;;;;;;;13.83;51.88;99084.31;4963055;28;6800;-74
2023/04/13 07:54:00;;;;;;;;;;;;;;;13.86;51.99;99086.97;4955503;28;7164;-75
2023/04/13 07:56:26;;;;;;;;;;;;;;;13.91;51.16;99097.31;4974584;28;6816;-75
2023/04/13 07:58:52;;;;;;;;;;;;;;;13.94;50.97;99107.66;4955051;28;6957;-75
2023/04/13 08:01:18;;;;;;;;;;;;;;;13.96;51.65;99099.97;4975398;28;6796;-72
2023/04/13 08:03:44;;;;;;;;;;;;;;;13.97;50.95;99102.53;4940153;28;7124;-72
2023/04/13 08:06:10;;;;;;;;;;;;;;;13.95;50.99;99114.53;4961601;28;6967;-74
2023/04/13 08:08:36;;;;;;;;;;;;;;;13.92;50.84;99114.50;4961720;28;6800;-74
2023/04/13 08:11:02;;;;;;;;;;;;;;;13.93;50.90;99117.94;4960958;28;7052;-73
2023/04/13 08:13:29;;;;;;;;;;;;;;;13.92;51.33;99122.25;4958610;28;6792;-73
2023/04/13 08:15:56;;;;;;;;;;;;;;;13.90;51.37;99121.31;4956923;28;7936;-75
2023/04/13 08:18:23;;;;;;;;;;;;;;;13.91;50.55;99127.34;4953851;28;6976;-74
2023/04/13 08:20:49;;;;;;;;;;;;;;;13.91;51.54;99133.38;4970331;28;7043;-72
2023/04/13 08:23:14;;;;;;;;;;;;;;;13.93;51.02;99133.38;4959426;28;6796;-72
2023/04/13 08:25:40;;;;;;;;;;;;;;;13.91;50.95;99143.69;4957759;28;7372;-76
2023/04/13 08:28:07;;;;;;;;;;;;;;;13.89;51.13;99137.63;4968364;28;8331;-70
2023/04/13 08:30:33;;;;;;;;;;;;;;;13.85;50.58;99148.75;4945817;28;7162;-71
2023/04/13 08:32:58;;;;;;;;;;;;;;;13.84;50.97;99153.00;4957717;28;7031;-75
2023/04/13 08:35:24;;;;;;;;;;;;;;;13.85;50.99;99159.03;4962016;28;6921;-75
2023/04/13 08:37:50;;;;;;;;;;;;;;;13.90;49.83;99165.09;4956717;28;6860;-73
2023/04/13 08:40:17;;;;;;;;;;;;;;;13.93;49.87;99160.03;4955178;28;7009;-75
2023/04/13 08:42:43;;;;;;;;;;;;;;;14.00;49.56;99158.41;4955465;28;6772;-72
2023/04/13 08:45:09;;;;;;;;;;;;;;;14.08;49.75;99155.91;4957030;28;6916;-71
2023/04/13 08:47:35;;;;;;;;;;;;;;;14.13;49.02;99160.28;4975695;28;7126;-74
2023/04/13 08:50:01;;;;;;;;;;;;;;;14.20;49.25;99166.41;4953363;28;6967;-71
2023/04/13 08:52:28;;;;;;;;;;;;;;;14.26;49.42;99171.63;4972336;28;6884;-72
2023/04/13 08:54:57;;;;;;;;;;;;;;;14.36;49.46;99179.47;4937799;28;6986;-75
2023/04/13 08:57:23;;;;;;;;;;;;;;;14.44;49.51;99172.72;4957806;28;6860;-72
2023/04/13 08:59:53;;;;;;;;;;;;;;;14.58;49.13;99167.72;4969202;28;7255;-75
2023/04/13 09:02:23;;;;;;;;;;;;;;;14.71;49.50;99172.16;4952794;28;7218;-73
2023/04/13 09:04:53;;;;;;;;;;;;;;;14.84;48.94;99175.78;4967412;28;6811;-74
2023/04/13 09:07:38;;;;;;;;;;;;;;;14.95;48.59;99178.50;4959116;28;7398;-72
2023/04/13 09:10:08;;;;;;;;;;;;;;;15.01;47.50;99177.69;4972315;28;7265;-71
2023/04/13 09:12:34;;;;;;;;;;;;;;;15.08;47.83;99191.50;4974601;28;6820;-71
2023/04/13 09:15:02;;;;;;;;;;;;;;;15.16;47.57;99197.63;4956251;28;6796;-75
2023/04/13 09:17:31;;;;;;;;;;;;;;;15.27;47.04;99192.56;4963111;28;6992;-71
2023/04/13 09:20:22;;;;;;;;;;;;;;;15.40;47.36;99186.66;4962491;28;6831;-71
2023/04/13 09:22:50;;;;;;;;;;;;;;;15.61;46.86;99198.03;4977409;28;7004;-72
2023/04/13 09:25:34;;;;;;;;;;;;;;;15.81;47.12;99198.19;4973297;28;6991;-71
2023/04/13 09:27:59;;;;;;;;;;;;;;;15.98;46.25;99194.03;4958777;28;6784;-71
2023/04/13 09:30:26;;;;;;;;;;;;;;;16.09;45.89;99201.00;4958279;28;6808;-71
2023/04/13 09:33:21;;;;;;;;;;;;;;;16.24;46.02;99205.38;4962580;28;7468;-72
2023/04/13 09:35:46;;;;;;;;;;;;;;;16.42;45.63;99200.28;4919059;28;7276;-74
2023/04/13 09:38:15;;;;;;;;;;;;;;;16.58;45.91;99212.44;4953224;28;6772;-71
2023/04/13 09:40:48;;;;;;;;;;;;;;;16.79;45.65;99216.81;4957153;28;6989;-70
2023/04/13 09:43:14;;;;;;;;;;;;;;;17.03;45.25;99215.22;4973214;28;6853;-72
2023/04/13 09:45:44;;;;;;;;;;;;;;;17.25;44.84;99217.00;4938128;28;8523;-73
2023/04/13 09:48:20;;;;;;;;;;;;;;;17.55;44.86;99205.78;4975970;28;7890;-74
2023/04/13 09:51:01;;;;;;;;;;;;;;;17.81;43.62;99211.81;4962656;28;6943;-73
2023/04/13 09:53:37;;;;;;;;;;;;;;;17.86;43.03;99221.31;4977465;28;7044;-73
2023/04/13 09:56:03;;;;;;;;;;;;;;;17.75;42.96;99221.34;4970637;28;6865;-74
2023/04/13 09:58:30;;;;;;;;;;;;;;;17.53;42.97;99219.59;4974243;28;6768;-74
2023/04/13 10:00:56;;;;;;;;;;;;;;;17.26;42.54;99226.50;4962576;28;6872;-73
2023/04/13 10:03:22;;;;;;;;;;;;;;;16.97;42.73;99228.09;4967429;28;6956;-73
2023/04/13 10:05:48;;;;;;;;;;;;;;;16.79;43.21;99237.53;4980645;28;6938;-73
2023/04/13 10:08:14;;;;;;;;;;;;;;;16.66;42.88;99240.94;4949083;28;6892;-73
2023/04/13 10:10:40;;;;;;;;;;;;;;;16.52;42.97;99241.75;4946903;28;7156;-73
2023/04/13 10:13:20;;;;;;;;;;;;;;;16.38;42.72;99249.41;4964227;28;6803;-73
2023/04/13 10:16:45;;;;;;;;;;;;;;;16.32;43.00;99251.97;4976010;28;6864;-74
2023/04/13 10:19:15;;;;;;;;;;;;;;;16.37;42.64;99252.88;4945434;28;7053;-74
2023/04/13 10:21:48;;;;;;;;;;;;;;;16.45;42.86;99263.25;4976828;28;6824;-74
2023/04/13 10:24:15;;;;;;;;;;;;;;;16.52;42.31;99262.44;4968827;28;6816;-74
2023/04/13 10:26:43;;;;;;;;;;;;;;;16.64;42.19;99264.19;4957621;28;6864;-75
2023/04/13 10:29:12;;;;;;;;;;;;;;;16.74;42.31;99257.34;4965067;28;7222;-74
2023/04/13 10:31:46;;;;;;;;;;;;;;;16.88;42.63;99269.47;4954479;28;7019;-73
2023/04/13 10:34:24;;;;;;;;;;;;;;;17.07;42.34;99263.53;4948829;28;7404;-75
2023/04/13 10:36:53;;;;;;;;;;;;;;;17.23;42.00;99267.91;4936788;28;6960;-75
2023/04/13 10:39:23;;;;;;;;;;;;;;;17.25;41.34;99259.28;4969492;28;7471;-75
2023/04/13 10:42:08;;;;;;;;;;;;;;;17.17;40.71;99271.34;4962626;28;7365;-75
2023/04/13 10:44:52;;;;;;;;;;;;;;;17.09;41.18;99276.50;4978034;28;7048;-75
2023/04/13 10:47:21;;;;;;;;;;;;;;;17.13;41.10;99274.78;4953076;28;6987;-75
2023/04/13 10:49:49;;;;;;;;;;;;;;;17.23;41.30;99273.94;4978982;28;7327;-75
2023/04/13 10:52:15;;;;;;;;;;;;;;;17.29;41.21;99279.16;4962747;28;8820;-75
2023/04/13 10:54:43;;;;;;;;;;;;;;;17.42;40.95;99280.03;4964690;28;7055;-75
2023/04/13 10:57:10;;;;;;;;;;;;;;;17.59;40.73;99285.25;4952449;28;9996;-75
2023/04/13 10:59:48;;;;;;;;;;;;;;;17.83;41.05;99275.75;4966177;28;6804;-75
2023/04/13 11:02:16;;;;;;;;;;;;;;;18.25;39.61;99282.66;4963797;28;7083;-75
2023/04/13 11:04:46;;;;;;;;;;;;;;;18.53;39.61;99282.63;4981194;28;6803;-75
2023/04/13 11:07:22;;;;;;;;;;;;;;;18.65;39.06;99289.50;4979300;28;7691;-75
2023/04/13 11:09:49;;;;;;;;;;;;;;;18.74;38.70;99286.91;4963246;28;7187;-75
2023/04/13 11:12:18;;;;;;;;;;;;;;;18.78;38.67;99285.16;4937962;28;6985;-75
2023/04/13 11:14:49;;;;;;;;;;;;;;;18.80;38.26;99286.00;4964197;28;6806;-75
2023/04/13 11:17:19;;;;;;;;;;;;;;;18.85;38.19;99298.09;4965920;28;7035;-75
2023/04/13 11:19:53;;;;;;;;;;;;;;;18.94;37.88;99284.25;4977689;28;7707;-75
2023/04/13 11:22:22;;;;;;;;;;;;;;;18.95;37.12;99295.47;4945710;28;7266;-75
2023/04/13 11:24:50;;;;;;;;;;;;;;;19.08;37.42;99296.31;4968178;28;7072;-75
2023/04/13 11:27:17;;;;;;;;;;;;;;;19.34;36.77;99298.78;4971999;28;6796;-75
2023/04/13 11:29:43;;;;;;;;;;;;;;;19.73;36.69;99311.53;4964573;28;7084;-75
2023/04/13 11:32:19;;;;;;;;;;;;;;;20.03;36.09;99306.13;4946417;28;6992;-75
2023/04/13 11:34:48;;;;;;;;;;;;;;;20.38;35.56;99316.25;4956069;28;7494;-75
2023/04/13 11:37:14;;;;;;;;;;;;;;;20.61;34.39;99322.94;4958128;28;7004;-74
2023/04/13 11:39:42;;;;;;;;;;;;;;;20.77;34.48;99322.78;4946876;28;8112;-75
2023/04/13 11:42:08;;;;;;;;;;;;;;;21.21;33.93;99318.78;4961009;28;7618;-75
2023/04/13 11:44:38;;;;;;;;;;;;;;;21.54;33.24;99313.13;4958076;28;6796;-75
2023/04/13 11:47:05;;;;;;;;;;;;;;;21.35;32.86;99321.22;4963001;28;7072;-75
2023/04/13 11:49:31;;;;;;;;;;;;;;;21.05;32.96;99327.69;4964013;28;6995;-75
2023/04/13 11:52:02;;;;;;;;;;;;;;;20.96;33.38;99323.44;4964318;28;7134;-74
2023/04/13 11:54:29;;;;;;;;;;;;;;;21.33;32.78;99325.59;4980746;28;6784;-75
2023/04/13 11:56:56;;;;;;;;;;;;;;;21.93;32.00;99320.41;4947606;28;7024;-74
2023/04/13 11:59:23;;;;;;;;;;;;;;;22.40;31.29;99317.00;4962709;28;6796;-74
2023/04/13 12:01:50;;;;;;;;;;;;;;;22.69;31.53;99315.63;4960283;28;6830;-74
2023/04/13 12:04:17;;;;;;;;;;;;;;;23.01;30.99;99308.91;4977550;28;6798;-74
2023/04/13 12:06:46;;;;;;;;;;;;;;;23.39;29.80;99320.34;4955798;28;6972;-74
2023/04/13 12:09:12;;;;;;;;;;;;;;;23.65;29.26;99312.78;4960975;28;7036;-74
2023/04/13 12:11:41;;;;;;;;;;;;;;;23.74;28.57;99322.16;4951415;28;7146;-74
2023/04/13 12:14:07;;;;;;;;;;;;;;;23.98;29.65;99313.72;4952863;28;7190;-74
2023/04/13 12:16:33;;;;;;;;;;;;;;;24.40;29.07;99323.19;4957795;28;7175;-74
2023/04/13 12:19:10;;;;;;;;;;;;;;;24.90;28.38;99328.84;4957588;28;6791;-75
2023/04/13 12:21:36;;;;;;;;;;;;;;;24.93;27.91;99319.13;4959515;28;6860;-74
2023/04/13 12:24:02;;;;;;;;;;;;;;;24.29;28.42;99312.13;4960490;28;6804;-75
2023/04/13 12:26:36;;;;;;;;;;;;;;;23.46;28.39;99330.63;4956001;28;6863;-74
2023/04/13 12:29:06;;;;;;;;;;;;;;;23.31;29.15;99324.88;4975265;28;6792;-74
2023/04/13 12:31:37;;;;;;;;;;;;;;;23.72;28.84;99328.28;4976915;28;6827;-74
2023/04/13 12:34:06;;;;;;;;;;;;;;;24.25;28.29;99319.22;4969678;28;6967;-75
2023/04/13 12:36:34;;;;;;;;;;;;;;;24.73;27.67;99329.28;4975308;28;7002;-74
2023/04/13 12:39:02;;;;;;;;;;;;;;;25.15;27.04;99329.00;4948969;28;7138;-75
2023/04/13 12:41:27;;;;;;;;;;;;;;;25.41;26.48;99327.34;4961750;28;6981;-75
2023/04/13 12:43:53;;;;;;;;;;;;;;;25.56;26.50;99323.44;4976619;28;6772;-75
2023/04/13 12:46:19;;;;;;;;;;;;;;;25.73;26.27;99325.50;4963200;28;6949;-75
2023/04/13 12:48:45;;;;;;;;;;;;;;;25.90;25.97;99327.63;4976267;28;6791;-75
2023/04/13 12:51:11;;;;;;;;;;;;;;;25.89;25.88;99315.41;4972867;28;8188;-75
2023/04/13 12:53:37;;;;;;;;;;;;;;;25.69;25.68;99323.03;4963613;28;6776;-75
2023/04/13 12:56:02;;;;;;;;;;;;;;;25.47;25.19;99321.94;4975956;28;6795;-74
2023/04/13 12:58:28;;;;;;;;;;;;;;;24.91;24.79;99335.81;4943404;28;6987;-75
2023/04/13 13:00:54;;;;;;;;;;;;;;;24.37;25.82;99349.41;4952563;28;6962;-74
2023/04/13 13:03:20;;;;;;;;;;;;;;;24.28;25.50;99341.81;4945585;28;7051;-74